Terminal Aerodrome Forecast
Issued by NWS

Home | Current Version | Previous Version | Text Only | Print | Product List | Glossary On
Versions: 1 2 3 4 5 6 7 8 9 10 11 12 13 14 15 16 17 18 19 20 21 22 23 24
000
FTUS45 KLKN 221124
TAFTPH
TAF
KTPH 221124Z 2212/2312 35007KT P6SM FEW200
     FM221900 18010G20KT P6SM SCT120
     FM230200 18009KT P6SM FEW130
     FM230600 02006KT P6SM SKC=

USA.gov is the U.S. government's official web portal to all federal, state and local government web resources and services.